createdAt,value
2019-03-19T00:00:53.834Z,46.70
2019-03-19T00:03:22.472Z,48.48
2019-03-19T00:05:51.332Z,46.12
2019-03-19T00:08:19.935Z,45.34
2019-03-19T00:10:48.780Z,45.22
2019-03-19T00:13:17.621Z,45.82
2019-03-19T00:15:46.325Z,48.90
2019-03-19T00:18:15.153Z,48.14
2019-03-19T00:20:44.014Z,48.57
2019-03-19T00:23:12.614Z,50.31
2019-03-19T00:25:41.226Z,47.55
2019-03-19T00:28:09.887Z,49.41
2019-03-19T00:30:38.746Z,47.77
2019-03-19T00:33:07.418Z,50.28
2019-03-19T00:35:36.012Z,48.61
2019-03-19T00:38:04.941Z,49.04
2019-03-19T00:40:33.575Z,48.21
2019-03-19T00:43:02.471Z,47.68
2019-03-19T00:45:31.076Z,47.63
2019-03-19T00:47:59.700Z,49.37
2019-03-19T00:50:28.294Z,47.21
2019-03-19T00:52:57.140Z,47.13
2019-03-19T00:55:26.208Z,48.80
2019-03-19T00:57:54.908Z,51.20
2019-03-19T01:00:23.833Z,48.29
2019-03-19T01:02:52.734Z,50.75
2019-03-19T01:05:21.568Z,51.62
2019-03-19T01:07:50.656Z,52.00
2019-03-19T01:10:19.362Z,48.80
2019-03-19T01:12:47.995Z,47.75
2019-03-19T01:15:16.923Z,47.48
2019-03-19T01:17:45.792Z,45.98
2019-03-19T01:20:14.533Z,46.83
2019-03-19T01:22:43.530Z,49.64
2019-03-19T01:25:12.140Z,48.91
2019-03-19T01:27:41.072Z,48.92
2019-03-19T01:30:10.407Z,47.47
2019-03-19T01:32:39.012Z,48.25
2019-03-19T01:35:07.747Z,50.44
2019-03-19T01:37:37.608Z,49.94
2019-03-19T01:40:06.525Z,51.74
2019-03-19T01:42:35.133Z,52.32
2019-03-19T01:45:03.871Z,50.98
2019-03-19T01:47:32.458Z,50.82
2019-03-19T01:50:01.082Z,50.16
2019-03-19T01:52:29.946Z,49.18
2019-03-19T01:54:58.529Z,50.27
2019-03-19T01:57:27.370Z,49.37
2019-03-19T01:59:55.958Z,49.39
2019-03-19T02:02:24.550Z,49.79
2019-03-19T02:04:53.128Z,50.45
2019-03-19T02:07:21.990Z,50.47
2019-03-19T02:09:50.847Z,50.15
2019-03-19T02:12:19.707Z,49.81
2019-03-19T02:14:48.540Z,47.50
2019-03-19T02:17:17.601Z,50.73
2019-03-19T02:19:46.215Z,49.11
2019-03-19T02:22:15.041Z,51.78
2019-03-19T02:24:43.630Z,49.95
2019-03-19T02:27:12.481Z,49.92
2019-03-19T02:29:41.069Z,47.59
2019-03-19T02:32:09.928Z,48.24
2019-03-19T02:34:38.827Z,47.51
2019-03-19T02:37:07.457Z,48.48
2019-03-19T02:39:36.027Z,46.60
2019-03-19T02:42:04.719Z,46.44
2019-03-19T02:44:33.569Z,47.87
2019-03-19T02:47:02.395Z,46.58
2019-03-19T02:49:31.002Z,49.78
2019-03-19T02:51:59.596Z,49.18
2019-03-19T02:54:28.419Z,48.13
2019-03-19T02:56:57.013Z,48.60
2019-03-19T02:59:25.842Z,47.13
2019-03-19T03:01:54.425Z,49.64
2019-03-19T03:04:23.058Z,51.52
2019-03-19T03:06:52.133Z,48.63
2019-03-19T03:09:20.745Z,46.51
2019-03-19T03:11:49.580Z,47.79
2019-03-19T03:14:18.445Z,51.74
2019-03-19T03:16:47.047Z,48.42
2019-03-19T03:19:15.913Z,47.25
2019-03-19T03:21:44.503Z,48.83
2019-03-19T03:24:13.383Z,47.87
2019-03-19T03:26:48.039Z,47.79
2019-03-19T03:29:12.331Z,49.46
2019-03-19T03:31:40.912Z,48.20
2019-03-19T03:34:09.542Z,46.84
2019-03-19T03:36:38.142Z,48.77
2019-03-19T03:39:08.156Z,49.38
2019-03-19T03:41:37.205Z,49.49
2019-03-19T03:44:06.004Z,51.07
2019-03-19T03:46:34.606Z,49.98
2019-03-19T03:49:03.556Z,51.33
2019-03-19T03:51:32.421Z,49.22
2019-03-19T03:54:01.032Z,48.49
2019-03-19T03:56:29.655Z,51.18
2019-03-19T03:59:01.092Z,50.06
2019-03-19T04:01:29.465Z,47.59
2019-03-19T04:03:58.089Z,49.25
2019-03-19T04:06:26.675Z,49.05
2019-03-19T04:08:55.320Z,48.51
2019-03-19T04:11:24.242Z,48.60
2019-03-19T04:13:53.126Z,49.11
2019-03-19T04:16:21.961Z,47.43
2019-03-19T04:18:50.807Z,50.06
2019-03-19T04:21:19.434Z,47.74
2019-03-19T04:23:48.106Z,46.52
2019-03-19T04:26:16.710Z,47.05
2019-03-19T04:28:45.589Z,46.96
2019-03-19T04:31:14.420Z,46.77
2019-03-19T04:33:43.994Z,48.45
2019-03-19T04:36:12.814Z,46.81
2019-03-19T04:38:41.688Z,46.32
2019-03-19T04:41:10.511Z,48.69
2019-03-19T04:43:39.111Z,49.63
2019-03-19T04:46:07.754Z,49.30
2019-03-19T04:48:36.367Z,47.49
2019-03-19T04:51:04.970Z,48.29
2019-03-19T04:53:33.589Z,47.89
2019-03-19T04:56:02.429Z,47.30
2019-03-19T04:58:31.276Z,46.95
2019-03-19T05:00:59.856Z,50.84
2019-03-19T05:03:28.503Z,51.09
2019-03-19T05:05:59.525Z,50.43
2019-03-19T05:08:28.171Z,49.83
2019-03-19T05:10:57.239Z,49.58
2019-03-19T05:13:25.864Z,49.49
2019-03-19T05:15:54.437Z,48.40
2019-03-19T05:18:23.076Z,47.11
2019-03-19T05:20:51.951Z,46.27
2019-03-19T05:23:20.552Z,46.11
2019-03-19T05:25:49.152Z,48.99
2019-03-19T05:28:17.769Z,47.66
2019-03-19T05:30:46.610Z,47.37
2019-03-19T05:33:15.436Z,47.51
2019-03-19T05:35:44.083Z,45.90
2019-03-19T05:38:12.915Z,47.15
2019-03-19T05:40:41.549Z,46.42
2019-03-19T05:43:10.171Z,47.14
2019-03-19T05:45:38.770Z,48.17
2019-03-19T05:48:07.375Z,48.32
2019-03-19T05:50:36.501Z,49.41
2019-03-19T05:53:05.165Z,48.39
2019-03-19T05:55:33.776Z,48.30
2019-03-19T05:58:02.396Z,47.66
2019-03-19T06:00:32.137Z,48.72
2019-03-19T06:03:01.112Z,48.52
2019-03-19T06:05:29.709Z,48.98
2019-03-19T06:07:58.331Z,52.03
2019-03-19T06:10:26.971Z,47.16
2019-03-19T06:12:55.830Z,47.27
2019-03-19T06:15:24.438Z,48.39
2019-03-19T06:17:53.035Z,50.61
2019-03-19T06:20:21.724Z,48.65
2019-03-19T06:22:50.579Z,47.41
2019-03-19T06:25:19.209Z,47.92
2019-03-19T06:27:47.791Z,48.22
2019-03-19T06:30:17.508Z,47.40
2019-03-19T06:32:46.180Z,49.44
2019-03-19T06:35:14.777Z,48.99
2019-03-19T06:37:43.464Z,47.42
2019-03-19T06:40:13.056Z,45.31
2019-03-19T06:42:41.915Z,44.76
2019-03-19T06:45:12.193Z,45.33
2019-03-19T06:47:40.810Z,44.50
2019-03-19T06:50:10.453Z,45.43
2019-03-19T06:52:39.132Z,46.55
2019-03-19T06:55:09.288Z,47.75
2019-03-19T06:57:39.425Z,46.94
2019-03-19T07:00:11.352Z,46.81
2019-03-19T07:02:40.218Z,45.92
2019-03-19T07:05:09.159Z,47.01
2019-03-19T07:07:38.261Z,46.76
2019-03-19T07:10:07.203Z,46.74
2019-03-19T07:12:36.111Z,46.74
2019-03-19T07:15:05.686Z,46.25
2019-03-19T07:17:34.540Z,44.13
2019-03-19T07:20:03.480Z,47.78
2019-03-19T07:22:32.096Z,45.61
2019-03-19T07:25:00.700Z,46.80
2019-03-19T07:27:29.399Z,47.47
2019-03-19T07:29:58.281Z,48.39
2019-03-19T07:32:27.345Z,48.45
2019-03-19T07:34:56.193Z,46.43
2019-03-19T07:37:25.040Z,45.47
2019-03-19T07:39:53.851Z,48.14
2019-03-19T07:42:22.730Z,47.68
2019-03-19T07:44:51.578Z,47.11
2019-03-19T07:47:20.175Z,44.97
2019-03-19T07:49:49.021Z,46.31
2019-03-19T07:52:17.872Z,47.57
2019-03-19T07:54:46.486Z,45.89
2019-03-19T07:57:15.088Z,47.67
2019-03-19T07:59:43.728Z,48.68
2019-03-19T08:02:12.587Z,46.27
2019-03-19T08:04:41.174Z,48.51
2019-03-19T08:07:09.821Z,46.26
2019-03-19T08:09:38.760Z,47.36
2019-03-19T08:12:07.447Z,45.61
2019-03-19T08:14:36.531Z,46.35
2019-03-19T08:17:05.227Z,45.60
2019-03-19T08:19:34.082Z,45.85
2019-03-19T08:22:02.723Z,45.30
2019-03-19T08:24:31.342Z,46.80
2019-03-19T08:27:00.470Z,46.06
2019-03-19T08:29:29.119Z,44.85
2019-03-19T08:31:57.744Z,43.76
2019-03-19T08:34:26.655Z,44.62
2019-03-19T08:36:55.268Z,44.70
2019-03-19T08:39:23.901Z,44.36
2019-03-19T08:41:52.500Z,44.54
2019-03-19T08:44:27.743Z,41.54
2019-03-19T08:46:51.704Z,42.05
2019-03-19T08:49:22.287Z,41.99
2019-03-19T08:51:51.099Z,40.44
2019-03-19T08:54:19.695Z,40.61
2019-03-19T08:56:48.552Z,38.77
2019-03-19T08:59:17.246Z,38.30
2019-03-19T09:01:47.408Z,39.86
2019-03-19T09:04:16.302Z,42.06
2019-03-19T09:06:44.910Z,41.77
2019-03-19T09:09:14.006Z,40.67
2019-03-19T09:11:42.842Z,39.74
2019-03-19T09:14:11.447Z,36.51
2019-03-19T09:16:40.080Z,37.89
2019-03-19T09:19:08.649Z,38.46
2019-03-19T09:21:37.291Z,38.20
2019-03-19T09:24:06.159Z,40.52
2019-03-19T09:26:35.041Z,40.53
2019-03-19T09:29:03.810Z,40.90
2019-03-19T09:31:32.673Z,41.48
2019-03-19T09:34:01.252Z,40.36
2019-03-19T09:36:29.843Z,39.43
2019-03-19T09:38:58.435Z,41.06
2019-03-19T09:41:27.014Z,39.40
2019-03-19T09:43:55.610Z,36.86
2019-03-19T09:46:24.185Z,32.53
2019-03-19T09:48:52.836Z,32.53
2019-03-19T09:51:21.664Z,32.78
2019-03-19T09:53:50.360Z,34.63
2019-03-19T09:56:18.969Z,34.56
2019-03-19T09:58:47.795Z,35.97
2019-03-19T10:01:16.675Z,35.29
2019-03-19T10:03:45.537Z,34.63
2019-03-19T10:06:14.663Z,34.63
2019-03-19T10:08:43.555Z,34.02
2019-03-19T10:11:12.141Z,34.02
2019-03-19T10:13:40.996Z,34.82
2019-03-19T10:16:09.628Z,35.52
2019-03-19T10:18:38.705Z,34.08
2019-03-19T10:21:07.325Z,34.08
2019-03-19T10:23:36.181Z,31.15
2019-03-19T10:26:04.933Z,30.72
2019-03-19T10:28:33.556Z,32.54
2019-03-19T10:31:02.406Z,32.54
2019-03-19T10:33:31.223Z,33.26
2019-03-19T10:35:59.845Z,35.29
2019-03-19T10:38:28.464Z,35.29
2019-03-19T10:40:57.056Z,34.80
2019-03-19T10:43:25.663Z,34.23
2019-03-19T10:45:54.298Z,34.23
2019-03-19T10:48:22.882Z,35.03
2019-03-19T10:50:51.725Z,33.67
2019-03-19T10:53:20.826Z,33.67
2019-03-19T10:55:49.664Z,33.46
2019-03-19T10:58:18.513Z,33.46
2019-03-19T11:00:47.097Z,33.40
2019-03-19T11:03:15.758Z,33.40
2019-03-19T11:05:44.371Z,34.91
2019-03-19T11:08:12.955Z,35.93
2019-03-19T11:10:41.556Z,35.32
2019-03-19T11:13:10.403Z,34.04
2019-03-19T11:15:39.020Z,35.05
2019-03-19T11:18:07.943Z,36.12
2019-03-19T11:20:36.616Z,35.35
2019-03-19T11:23:05.233Z,36.11
2019-03-19T11:25:33.825Z,33.47
2019-03-19T11:28:02.501Z,30.95
2019-03-19T11:30:31.168Z,29.72
2019-03-19T11:32:59.803Z,29.38
2019-03-19T11:35:29.041Z,29.41
2019-03-19T11:37:57.752Z,28.89
2019-03-19T11:40:27.494Z,31.00
2019-03-19T11:42:56.076Z,31.11
2019-03-19T11:45:25.272Z,32.17
2019-03-19T11:47:53.932Z,31.91
2019-03-19T11:50:22.975Z,32.66
2019-03-19T11:52:51.992Z,34.33
2019-03-19T11:55:20.832Z,33.19
2019-03-19T11:57:49.461Z,33.19
2019-03-19T12:00:30.051Z,32.73
2019-03-19T12:02:58.761Z,32.05
2019-03-19T12:05:27.675Z,32.05
2019-03-19T12:07:56.547Z,32.73
2019-03-19T12:10:25.189Z,32.75
2019-03-19T12:12:53.783Z,30.66
2019-03-19T12:15:22.366Z,29.62
2019-03-19T12:17:50.985Z,29.62
2019-03-19T12:20:20.918Z,28.48
2019-03-19T12:22:49.631Z,29.82
2019-03-19T12:25:18.467Z,30.38
2019-03-19T12:27:47.189Z,32.57
2019-03-19T12:30:22.323Z,30.89
2019-03-19T12:32:46.419Z,30.50
2019-03-19T12:35:15.561Z,29.72
2019-03-19T12:37:44.415Z,26.90
2019-03-19T12:40:13.749Z,26.41
2019-03-19T12:42:42.609Z,25.74
2019-03-19T12:45:12.790Z,25.99
2019-03-19T12:47:41.398Z,26.68
2019-03-19T12:50:11.889Z,27.43
2019-03-19T12:52:40.498Z,26.58
2019-03-19T12:55:09.221Z,26.96
2019-03-19T12:57:37.847Z,27.98
2019-03-19T13:00:10.017Z,29.38
2019-03-19T13:02:38.848Z,28.86
2019-03-19T13:05:07.844Z,30.82
2019-03-19T13:07:39.425Z,31.66
2019-03-19T13:10:09.957Z,31.21
2019-03-19T13:12:38.591Z,29.99
2019-03-19T13:15:07.548Z,29.59
2019-03-19T13:17:36.449Z,29.22
2019-03-19T13:20:05.779Z,30.61
2019-03-19T13:22:34.351Z,31.56
2019-03-19T13:25:03.236Z,31.24
2019-03-19T13:27:32.059Z,31.84
2019-03-19T13:30:00.663Z,31.84
2019-03-19T13:32:29.241Z,29.79
2019-03-19T13:34:57.870Z,31.04
2019-03-19T13:37:26.477Z,31.04
2019-03-19T13:39:55.307Z,29.65
2019-03-19T13:42:23.908Z,30.71
2019-03-19T13:44:52.738Z,30.50
2019-03-19T13:47:21.367Z,31.51
2019-03-19T13:49:49.961Z,30.14
2019-03-19T13:52:18.831Z,30.14
2019-03-19T13:54:47.412Z,31.27
2019-03-19T13:57:16.284Z,29.89
2019-03-19T13:59:44.873Z,30.96
2019-03-19T14:02:13.476Z,31.45
2019-03-19T14:04:42.295Z,29.99
2019-03-19T14:07:11.180Z,27.84
2019-03-19T14:09:40.235Z,27.84
2019-03-19T14:12:08.841Z,29.54
2019-03-19T14:14:38.136Z,30.46
2019-03-19T14:17:06.987Z,30.07
2019-03-19T14:19:35.576Z,30.24
2019-03-19T14:22:04.252Z,31.12
2019-03-19T14:24:32.905Z,29.11
2019-03-19T14:27:01.499Z,29.70
2019-03-19T14:29:30.443Z,27.83
2019-03-19T14:31:59.026Z,28.66
2019-03-19T14:34:27.894Z,28.80
2019-03-19T14:36:56.968Z,30.80
2019-03-19T14:39:25.577Z,30.27
2019-03-19T14:41:54.152Z,29.63
2019-03-19T14:44:22.772Z,29.40
2019-03-19T14:46:51.455Z,30.40
2019-03-19T14:49:20.122Z,29.93
2019-03-19T14:51:48.714Z,31.06
2019-03-19T14:54:17.418Z,29.63
2019-03-19T14:56:46.030Z,30.82
2019-03-19T14:59:14.621Z,31.22
2019-03-19T15:01:43.487Z,31.00
2019-03-19T15:04:12.088Z,30.49
2019-03-19T15:06:40.979Z,30.82
2019-03-19T15:09:09.604Z,31.05
2019-03-19T15:11:38.289Z,31.25
2019-03-19T15:14:06.897Z,30.44
2019-03-19T15:16:35.516Z,30.25
2019-03-19T15:19:04.225Z,30.19
2019-03-19T15:21:33.051Z,30.41
2019-03-19T15:24:01.636Z,31.84
2019-03-19T15:26:30.484Z,31.98
2019-03-19T15:28:59.093Z,32.03
2019-03-19T15:31:30.108Z,32.55
2019-03-19T15:33:58.227Z,32.93
2019-03-19T15:36:27.058Z,32.88
2019-03-19T15:38:55.882Z,32.88
2019-03-19T15:41:24.462Z,32.60
2019-03-19T15:43:53.103Z,33.31
2019-03-19T15:46:21.953Z,33.55
2019-03-19T15:48:50.537Z,34.63
2019-03-19T15:51:19.174Z,34.63
2019-03-19T15:53:47.785Z,33.78
2019-03-19T15:56:16.464Z,33.78
2019-03-19T15:58:45.069Z,33.92
2019-03-19T16:01:16.941Z,33.92
2019-03-19T16:03:44.769Z,34.47
2019-03-19T16:06:13.400Z,35.73
2019-03-19T16:08:41.994Z,35.73
2019-03-19T16:11:10.615Z,34.71
2019-03-19T16:13:39.444Z,34.54
2019-03-19T16:16:08.617Z,33.94
2019-03-19T16:18:37.230Z,33.94
2019-03-19T16:21:06.081Z,34.59
2019-03-19T16:23:34.963Z,34.03
2019-03-19T16:26:03.904Z,34.68
2019-03-19T16:28:32.738Z,34.01
2019-03-19T16:31:01.901Z,34.07
2019-03-19T16:33:30.489Z,33.66
2019-03-19T16:35:59.189Z,33.71
2019-03-19T16:38:27.777Z,33.47
2019-03-19T16:40:56.628Z,34.21
2019-03-19T16:43:25.533Z,33.97
2019-03-19T16:45:54.390Z,33.70
2019-03-19T16:48:22.969Z,34.50
2019-03-19T16:50:51.591Z,34.35
2019-03-19T16:53:20.439Z,34.26
2019-03-19T16:55:49.030Z,33.87
2019-03-19T16:58:17.608Z,35.34
2019-03-19T17:00:46.334Z,34.83
2019-03-19T17:03:14.917Z,34.49
2019-03-19T17:05:43.915Z,34.80
2019-03-19T17:08:12.520Z,35.59
2019-03-19T17:10:41.111Z,34.99
2019-03-19T17:13:10.604Z,35.21
2019-03-19T17:15:39.517Z,35.34
2019-03-19T17:18:08.224Z,36.13
2019-03-19T17:20:37.043Z,35.34
2019-03-19T17:23:05.695Z,35.19
2019-03-19T17:25:34.321Z,35.70
2019-03-19T17:28:03.982Z,35.60
2019-03-19T17:30:32.578Z,35.60
2019-03-19T17:33:01.400Z,36.67
2019-03-19T17:35:30.460Z,36.09
2019-03-19T17:37:59.068Z,36.85
2019-03-19T17:40:28.134Z,37.86
2019-03-19T17:42:56.741Z,37.99
2019-03-19T17:45:25.352Z,38.32
2019-03-19T17:47:54.202Z,38.13
2019-03-19T17:50:22.857Z,38.25
2019-03-19T17:52:51.582Z,38.98
2019-03-19T17:55:20.268Z,39.14
2019-03-19T17:57:48.905Z,39.17
2019-03-19T18:00:21.377Z,39.64
2019-03-19T18:02:49.990Z,39.90
2019-03-19T18:05:18.702Z,40.16
2019-03-19T18:07:47.298Z,40.50
2019-03-19T18:10:16.439Z,42.45
2019-03-19T18:12:45.280Z,42.74
2019-03-19T18:15:14.505Z,43.02
2019-03-19T18:17:43.156Z,42.94
2019-03-19T18:20:11.815Z,42.41
2019-03-19T18:22:40.415Z,42.45
2019-03-19T18:25:09.309Z,41.38
2019-03-19T18:27:37.987Z,43.43
2019-03-19T18:30:07.647Z,41.91
2019-03-19T18:32:36.254Z,41.71
2019-03-19T18:35:05.263Z,41.21
2019-03-19T18:37:33.882Z,42.00
2019-03-19T18:40:02.708Z,43.17
2019-03-19T18:42:31.529Z,43.90
2019-03-19T18:45:00.431Z,42.67
2019-03-19T18:47:28.973Z,42.67
2019-03-19T18:49:57.940Z,42.61
2019-03-19T18:52:27.284Z,43.54
2019-03-19T18:54:55.915Z,43.24
2019-03-19T18:57:24.818Z,43.75
2019-03-19T18:59:53.446Z,43.77
2019-03-19T19:02:22.089Z,43.86
2019-03-19T19:04:50.697Z,44.14
2019-03-19T19:07:19.810Z,43.51
2019-03-19T19:09:48.442Z,43.84
2019-03-19T19:12:17.061Z,44.33
2019-03-19T19:14:45.979Z,44.55
2019-03-19T19:17:14.583Z,45.09
2019-03-19T19:19:43.188Z,45.46
2019-03-19T19:22:11.862Z,44.82
2019-03-19T19:24:40.538Z,45.90
2019-03-19T19:27:09.408Z,45.26
2019-03-19T19:29:38.460Z,45.65
2019-03-19T19:32:07.284Z,45.57
2019-03-19T19:34:35.877Z,45.87
2019-03-19T19:37:05.200Z,45.85
2019-03-19T19:39:34.129Z,46.46
2019-03-19T19:42:02.982Z,47.61
2019-03-19T19:44:31.791Z,46.80
2019-03-19T19:47:00.626Z,46.20
2019-03-19T19:49:29.483Z,45.47
2019-03-19T19:51:58.337Z,45.60
2019-03-19T19:54:26.939Z,46.36
2019-03-19T19:56:55.770Z,44.26
2019-03-19T19:59:25.016Z,43.96
2019-03-19T20:01:53.599Z,45.13
2019-03-19T20:04:22.448Z,46.19
2019-03-19T20:06:51.348Z,46.53
2019-03-19T20:09:19.943Z,46.23
2019-03-19T20:11:48.694Z,45.31
2019-03-19T20:14:17.291Z,46.29
2019-03-19T20:16:46.015Z,46.23
2019-03-19T20:19:14.635Z,45.89
2019-03-19T20:21:43.242Z,45.94
2019-03-19T20:24:11.891Z,45.63
2019-03-19T20:26:40.513Z,45.54
2019-03-19T20:29:09.677Z,45.67
2019-03-19T20:31:38.595Z,46.31
2019-03-19T20:34:07.169Z,46.67
2019-03-19T20:36:35.785Z,46.04
2019-03-19T20:39:06.967Z,45.24
2019-03-19T20:41:35.760Z,46.46
2019-03-19T20:44:04.520Z,45.04
2019-03-19T20:46:33.111Z,45.53
2019-03-19T20:49:01.704Z,45.86
2019-03-19T20:51:30.590Z,44.91
2019-03-19T20:53:59.184Z,44.60
2019-03-19T20:56:27.822Z,45.29
2019-03-19T20:58:56.639Z,45.23
2019-03-19T21:01:25.285Z,45.67
2019-03-19T21:03:53.973Z,46.83
2019-03-19T21:06:23.700Z,45.89
2019-03-19T21:08:52.307Z,46.87
2019-03-19T21:11:20.913Z,46.16
2019-03-19T21:13:49.521Z,46.69
2019-03-19T21:16:18.231Z,46.04
2019-03-19T21:18:46.813Z,47.70
2019-03-19T21:21:16.115Z,47.75
2019-03-19T21:23:44.711Z,47.83
2019-03-19T21:26:13.884Z,47.17
2019-03-19T21:28:42.485Z,47.23
2019-03-19T21:31:12.228Z,45.71
2019-03-19T21:33:50.862Z,45.71
2019-03-19T21:36:11.497Z,46.13
2019-03-19T21:38:40.050Z,46.05
2019-03-19T21:41:08.698Z,47.10
2019-03-19T21:43:37.470Z,46.88
2019-03-19T21:46:07.239Z,46.38
2019-03-19T21:48:35.840Z,45.50
2019-03-19T21:51:04.450Z,45.70
2019-03-19T21:53:33.492Z,46.45
2019-03-19T21:56:02.179Z,46.02
2019-03-19T21:58:30.763Z,45.47
2019-03-19T22:00:59.445Z,46.79
2019-03-19T22:03:28.259Z,45.59
2019-03-19T22:05:57.118Z,46.29
2019-03-19T22:08:25.973Z,47.90
2019-03-19T22:10:55.091Z,46.92
2019-03-19T22:13:23.679Z,45.73
2019-03-19T22:15:52.276Z,45.90
2019-03-19T22:18:21.103Z,46.70
2019-03-19T22:20:49.701Z,47.70
2019-03-19T22:23:18.290Z,47.12
2019-03-19T22:25:47.118Z,46.71
2019-03-19T22:28:15.953Z,47.22
2019-03-19T22:30:44.575Z,47.46
2019-03-19T22:33:13.201Z,46.20
2019-03-19T22:35:41.783Z,46.18
2019-03-19T22:38:10.408Z,47.09
2019-03-19T22:40:38.995Z,47.84
2019-03-19T22:43:07.835Z,46.73
2019-03-19T22:45:36.432Z,47.07
2019-03-19T22:48:05.042Z,47.87
2019-03-19T22:50:33.630Z,46.92
2019-03-19T22:53:02.526Z,46.12
2019-03-19T22:55:31.390Z,46.55
2019-03-19T22:57:59.985Z,46.34
2019-03-19T23:00:42.246Z,46.46
2019-03-19T23:03:10.868Z,48.44
2019-03-19T23:05:39.762Z,46.56
2019-03-19T23:08:08.424Z,47.54
2019-03-19T23:10:37.406Z,46.38
2019-03-19T23:13:06.045Z,46.46
2019-03-19T23:15:35.007Z,48.84
2019-03-19T23:18:03.786Z,47.39
2019-03-19T23:20:32.427Z,47.54
2019-03-19T23:23:01.299Z,48.54
2019-03-19T23:25:29.990Z,48.97
2019-03-19T23:27:58.625Z,48.06
2019-03-19T23:30:27.474Z,48.04
2019-03-19T23:32:56.123Z,48.19
2019-03-19T23:35:24.951Z,47.04
2019-03-19T23:37:53.816Z,47.83
2019-03-19T23:40:22.451Z,47.22
2019-03-19T23:42:51.568Z,47.44
2019-03-19T23:45:20.415Z,47.28
2019-03-19T23:47:48.995Z,47.03
2019-03-19T23:50:17.737Z,47.05
2019-03-19T23:52:46.386Z,46.78
2019-03-19T23:55:14.981Z,47.80
2019-03-19T23:57:43.904Z,47.62
